createdAt,value
2018-10-17T00:01:57.699Z,13.98
2018-10-17T00:04:25.727Z,13.48
2018-10-17T00:06:54.024Z,14.78
2018-10-17T00:09:22.296Z,13.78
2018-10-17T00:11:51.298Z,14.18
2018-10-17T00:14:19.390Z,14.43
2018-10-17T00:16:47.434Z,14.43
2018-10-17T00:19:15.522Z,13.18
2018-10-17T00:21:43.668Z,13.03
2018-10-17T00:24:11.839Z,13.18
2018-10-17T00:26:39.947Z,14.18
2018-10-17T00:29:08.147Z,13.55
2018-10-17T00:31:36.083Z,14.05
2018-10-17T00:34:04.127Z,14.15
2018-10-17T00:36:32.503Z,15.18
2018-10-17T00:39:00.531Z,15.10
2018-10-17T00:41:28.535Z,13.15
2018-10-17T00:43:56.559Z,15.45
2018-10-17T00:46:24.580Z,14.55
2018-10-17T00:48:52.632Z,14.20
2018-10-17T00:51:20.727Z,13.93
2018-10-17T00:53:48.754Z,14.47
2018-10-17T00:56:16.767Z,14.13
2018-10-17T00:58:56.304Z,14.50
2018-10-17T01:01:24.307Z,14.07
2018-10-17T01:03:52.338Z,13.20
2018-10-17T01:06:20.826Z,13.88
2018-10-17T01:08:49.099Z,14.05
2018-10-17T01:11:17.378Z,14.18
2018-10-17T01:13:45.475Z,14.45
2018-10-17T01:16:13.506Z,12.82
2018-10-17T01:18:41.576Z,13.08
2018-10-17T01:21:09.845Z,13.03
2018-10-17T01:23:37.947Z,14.93
2018-10-17T01:26:05.973Z,14.90
2018-10-17T01:28:34.031Z,14.30
2018-10-17T01:31:02.084Z,14.68
2018-10-17T01:33:30.180Z,14.50
2018-10-17T01:35:58.210Z,15.60
2018-10-17T01:38:26.475Z,13.35
2018-10-17T01:40:54.570Z,14.07
2018-10-17T01:43:22.925Z,13.90
2018-10-17T01:45:51.002Z,15.65
2018-10-17T01:48:19.030Z,15.18
2018-10-17T01:50:47.617Z,13.88
2018-10-17T01:53:15.716Z,14.95
2018-10-17T01:55:43.706Z,14.98
2018-10-17T01:58:11.967Z,14.55
2018-10-17T02:00:40.077Z,15.38
2018-10-17T02:03:08.245Z,14.28
2018-10-17T02:05:36.360Z,15.30
2018-10-17T02:08:04.479Z,14.43
2018-10-17T02:10:32.676Z,13.50
2018-10-17T02:13:01.404Z,13.55
2018-10-17T02:15:29.619Z,14.83
2018-10-17T02:17:57.706Z,14.68
2018-10-17T02:20:25.871Z,14.93
2018-10-17T02:22:53.946Z,14.30
2018-10-17T02:25:21.902Z,15.13
2018-10-17T02:27:50.050Z,15.03
2018-10-17T02:30:18.053Z,14.30
2018-10-17T02:32:46.061Z,14.53
2018-10-17T02:35:14.401Z,15.50
2018-10-17T02:37:42.451Z,15.60
2018-10-17T02:40:10.843Z,15.05
2018-10-17T02:42:39.302Z,16.17
2018-10-17T02:45:08.878Z,15.18
2018-10-17T02:47:37.081Z,14.33
2018-10-17T02:50:07.397Z,15.72
2018-10-17T02:52:36.486Z,15.48
2018-10-17T02:55:04.682Z,15.53
2018-10-17T02:57:32.838Z,16.23
2018-10-17T03:00:01.551Z,15.80
2018-10-17T03:02:29.643Z,15.60
2018-10-17T03:04:57.809Z,16.10
2018-10-17T03:07:25.862Z,16.12
2018-10-17T03:09:54.018Z,16.57
2018-10-17T03:12:22.027Z,15.28
2018-10-17T03:14:50.770Z,16.95
2018-10-17T03:17:19.064Z,16.55
2018-10-17T03:19:47.117Z,16.35
2018-10-17T03:22:15.194Z,15.45
2018-10-17T03:24:43.341Z,16.23
2018-10-17T03:27:11.359Z,15.40
2018-10-17T03:29:39.434Z,16.23
2018-10-17T03:32:07.783Z,16.50
2018-10-17T03:34:35.819Z,15.13
2018-10-17T03:37:04.069Z,16.93
2018-10-17T03:39:32.065Z,17.17
2018-10-17T03:42:00.196Z,16.75
2018-10-17T03:44:28.663Z,16.12
2018-10-17T03:46:56.770Z,17.85
2018-10-17T03:49:24.970Z,17.10
2018-10-17T03:51:53.364Z,16.57
2018-10-17T03:54:21.439Z,16.67
2018-10-17T03:56:49.465Z,17.23
2018-10-17T03:59:17.655Z,17.67
2018-10-17T04:01:45.582Z,17.70
2018-10-17T04:04:13.660Z,17.50
2018-10-17T04:06:41.711Z,17.35
2018-10-17T04:09:10.182Z,16.73
2018-10-17T04:11:38.228Z,18.13
2018-10-17T04:14:06.539Z,17.35
2018-10-17T04:16:34.794Z,17.03
2018-10-17T04:19:02.907Z,17.53
2018-10-17T04:21:31.151Z,16.10
2018-10-17T04:23:59.253Z,15.47
2018-10-17T04:26:27.603Z,16.63
2018-10-17T04:28:56.088Z,17.35
2018-10-17T04:31:24.093Z,16.75
2018-10-17T04:33:52.113Z,17.65
2018-10-17T04:36:20.173Z,17.95
2018-10-17T04:38:49.136Z,18.32
2018-10-17T04:41:17.228Z,18.53
2018-10-17T04:43:45.255Z,17.07
2018-10-17T04:46:13.314Z,17.27
2018-10-17T04:48:41.367Z,16.50
2018-10-17T04:51:09.540Z,17.67
2018-10-17T04:53:37.553Z,16.95
2018-10-17T04:56:06.002Z,16.90
2018-10-17T04:58:34.068Z,17.23
2018-10-17T05:01:02.368Z,17.23
2018-10-17T05:03:30.449Z,15.80
2018-10-17T05:05:58.643Z,16.77
2018-10-17T05:08:27.163Z,17.60
2018-10-17T05:10:55.294Z,17.27
2018-10-17T05:13:23.719Z,17.97
2018-10-17T05:15:51.763Z,17.73
2018-10-17T05:18:19.975Z,17.37
2018-10-17T05:20:48.046Z,18.30
2018-10-17T05:23:16.271Z,18.23
2018-10-17T05:25:44.247Z,16.87
2018-10-17T05:28:12.456Z,17.77
2018-10-17T05:30:40.519Z,17.93
2018-10-17T05:33:09.108Z,16.57
2018-10-17T05:35:37.292Z,17.47
2018-10-17T05:38:05.361Z,17.52
2018-10-17T05:40:33.643Z,17.40
2018-10-17T05:43:01.796Z,16.67
2018-10-17T05:45:29.841Z,16.62
2018-10-17T05:47:57.895Z,17.30
2018-10-17T05:50:26.019Z,17.40
2018-10-17T05:52:54.206Z,19.00
2018-10-17T05:55:22.400Z,18.00
2018-10-17T05:57:50.536Z,16.33
2018-10-17T06:00:18.558Z,16.60
2018-10-17T06:02:46.576Z,16.48
2018-10-17T06:05:14.706Z,16.93
2018-10-17T06:07:42.815Z,16.45
2018-10-17T06:10:10.882Z,15.37
2018-10-17T06:12:39.083Z,15.30
2018-10-17T06:15:07.607Z,16.00
2018-10-17T06:17:35.716Z,15.10
2018-10-17T06:20:04.660Z,14.75
2018-10-17T06:22:32.730Z,14.53
2018-10-17T06:25:00.776Z,15.15
2018-10-17T06:27:28.955Z,14.40
2018-10-17T06:29:56.999Z,15.00
2018-10-17T06:32:25.051Z,14.03
2018-10-17T06:34:53.367Z,15.50
2018-10-17T06:37:21.363Z,13.80
2018-10-17T06:39:49.502Z,14.47
2018-10-17T06:42:17.696Z,14.03
2018-10-17T06:44:45.765Z,15.08
2018-10-17T06:47:14.014Z,14.58
2018-10-17T06:49:42.079Z,14.35
2018-10-17T06:52:31.576Z,16.27
2018-10-17T06:55:00.020Z,19.27
2018-10-17T06:57:28.037Z,18.80
2018-10-17T06:59:56.099Z,18.23
2018-10-17T07:02:24.399Z,18.07
2018-10-17T07:04:52.419Z,19.10
2018-10-17T07:07:20.540Z,19.25
2018-10-17T07:09:48.579Z,17.80
2018-10-17T07:12:17.014Z,19.24
2018-10-17T07:14:45.119Z,19.00
2018-10-17T07:17:13.558Z,19.05
2018-10-17T07:19:41.662Z,18.23
2018-10-17T07:22:10.004Z,18.80
2018-10-17T07:24:38.042Z,18.90
2018-10-17T07:27:06.103Z,19.70
2018-10-17T07:29:34.238Z,18.98
2018-10-17T07:32:02.455Z,19.27
2018-10-17T07:34:30.487Z,20.52
2018-10-17T07:36:58.644Z,20.02
2018-10-17T07:39:26.798Z,19.52
2018-10-17T07:41:55.115Z,20.23
2018-10-17T07:44:23.139Z,20.27
2018-10-17T07:46:51.566Z,19.20
2018-10-17T07:49:19.629Z,19.57
2018-10-17T07:51:47.829Z,19.53
2018-10-17T07:54:16.029Z,21.05
2018-10-17T07:56:43.939Z,19.80
2018-10-17T07:59:12.044Z,19.27
2018-10-17T08:01:40.199Z,21.52
2018-10-17T08:04:08.255Z,22.65
2018-10-17T08:06:36.561Z,21.48
2018-10-17T08:09:08.811Z,21.60
2018-10-17T08:11:37.094Z,19.37
2018-10-17T08:14:05.724Z,20.97
2018-10-17T08:16:34.020Z,20.97
2018-10-17T08:19:02.063Z,19.77
2018-10-17T08:21:30.323Z,20.88
2018-10-17T08:23:58.724Z,20.30
2018-10-17T08:26:27.083Z,20.02
2018-10-17T08:28:55.244Z,20.72
2018-10-17T08:31:23.512Z,19.40
2018-10-17T08:33:51.544Z,21.12
2018-10-17T08:36:19.685Z,19.37
2018-10-17T08:38:47.928Z,18.50
2018-10-17T08:41:16.010Z,19.30
2018-10-17T08:43:44.280Z,19.37
2018-10-17T08:46:12.886Z,21.17
2018-10-17T08:48:40.912Z,19.47
2018-10-17T08:51:09.093Z,21.12
2018-10-17T08:53:37.179Z,18.20
2018-10-17T08:56:05.499Z,18.42
2018-10-17T08:58:33.491Z,17.82
2018-10-17T09:01:01.548Z,17.95
2018-10-17T09:03:29.675Z,19.07
2018-10-17T09:05:57.711Z,19.48
2018-10-17T09:08:26.147Z,19.27
2018-10-17T09:10:54.233Z,19.55
2018-10-17T09:13:22.934Z,21.50
2018-10-17T09:15:51.069Z,18.37
2018-10-17T09:18:19.280Z,17.92
2018-10-17T09:20:47.945Z,19.42
2018-10-17T09:23:16.285Z,18.48
2018-10-17T09:25:44.727Z,19.67
2018-10-17T09:28:12.970Z,19.98
2018-10-17T09:30:41.267Z,20.08
2018-10-17T09:33:09.190Z,18.37
2018-10-17T09:35:37.276Z,13.18
2018-10-17T09:38:05.740Z,15.63
2018-10-17T09:40:33.793Z,15.43
2018-10-17T09:43:01.844Z,15.55
2018-10-17T09:45:29.919Z,15.55
2018-10-17T09:47:57.988Z,16.67
2018-10-17T09:50:26.069Z,16.10
2018-10-17T09:52:54.220Z,15.45
2018-10-17T09:55:22.287Z,15.85
2018-10-17T09:57:50.318Z,15.85
2018-10-17T10:00:23.748Z,16.00
2018-10-17T10:02:52.659Z,16.27
2018-10-17T10:05:21.087Z,19.13
2018-10-17T10:07:49.117Z,19.87
2018-10-17T10:10:17.362Z,18.45
2018-10-17T10:12:45.490Z,19.23
2018-10-17T10:15:13.569Z,20.05
2018-10-17T10:17:41.645Z,20.95
2018-10-17T10:20:09.731Z,21.48
2018-10-17T10:22:37.775Z,19.05
2018-10-17T10:25:05.941Z,19.97
2018-10-17T10:27:34.758Z,18.25
2018-10-17T10:30:02.888Z,20.57
2018-10-17T10:32:30.895Z,20.15
2018-10-17T10:34:58.965Z,20.75
2018-10-17T10:37:27.089Z,20.30
2018-10-17T10:39:55.203Z,20.40
2018-10-17T10:42:23.220Z,19.00
2018-10-17T10:44:51.321Z,20.23
2018-10-17T10:47:19.328Z,18.20
2018-10-17T10:49:47.835Z,17.07
2018-10-17T10:52:15.980Z,16.80
2018-10-17T10:54:44.063Z,15.35
2018-10-17T10:57:12.209Z,15.15
2018-10-17T10:59:40.356Z,16.10
2018-10-17T11:02:08.305Z,15.20
2018-10-17T11:04:36.765Z,14.30
2018-10-17T11:07:04.932Z,15.38
2018-10-17T11:09:33.182Z,14.58
2018-10-17T11:12:01.299Z,14.73
2018-10-17T11:14:29.414Z,14.07
2018-10-17T11:16:57.495Z,15.80
2018-10-17T11:19:25.501Z,14.55
2018-10-17T11:21:53.613Z,12.60
2018-10-17T11:24:21.715Z,13.15
2018-10-17T11:26:49.998Z,15.08
2018-10-17T11:29:18.380Z,14.20
2018-10-17T11:31:46.637Z,13.83
2018-10-17T11:34:14.645Z,14.38
2018-10-17T11:36:42.927Z,13.83
2018-10-17T11:39:11.634Z,13.18
2018-10-17T11:41:40.283Z,12.93
2018-10-17T11:44:08.410Z,14.05
2018-10-17T11:46:38.821Z,12.98
2018-10-17T11:49:06.936Z,12.73
2018-10-17T11:51:34.959Z,13.45
2018-10-17T11:54:03.043Z,12.55
2018-10-17T11:56:31.134Z,12.07
2018-10-17T11:58:59.395Z,12.05
2018-10-17T12:01:27.558Z,12.30
2018-10-17T12:03:55.737Z,11.50
2018-10-17T12:06:23.892Z,12.68
2018-10-17T12:08:52.220Z,12.60
2018-10-17T12:11:20.403Z,13.83
2018-10-17T12:13:48.353Z,11.85
2018-10-17T12:16:16.559Z,10.95
2018-10-17T12:18:44.604Z,11.43
2018-10-17T12:21:12.793Z,11.10
2018-10-17T12:23:40.951Z,11.83
2018-10-17T12:26:09.092Z,10.90
2018-10-17T12:28:37.205Z,9.63
2018-10-17T12:31:05.771Z,12.18
2018-10-17T12:33:33.790Z,13.50
2018-10-17T12:36:01.846Z,11.60
2018-10-17T12:38:30.404Z,12.00
2018-10-17T12:40:58.574Z,13.15
2018-10-17T12:43:57.437Z,11.97
2018-10-17T12:46:25.495Z,11.57
2018-10-17T12:48:55.817Z,12.33
2018-10-17T12:51:24.039Z,12.10
2018-10-17T12:53:52.214Z,11.90
2018-10-17T12:56:20.575Z,12.58
2018-10-17T12:58:48.867Z,13.75
2018-10-17T13:01:16.997Z,12.35
2018-10-17T13:03:45.028Z,12.73
2018-10-17T13:06:13.078Z,13.70
2018-10-17T13:08:41.122Z,13.95
2018-10-17T13:11:09.682Z,12.64
2018-10-17T13:13:37.806Z,12.03
2018-10-17T13:16:05.883Z,12.58
2018-10-17T13:18:34.001Z,12.95
2018-10-17T13:21:02.111Z,12.20
2018-10-17T13:23:33.779Z,11.12
2018-10-17T13:26:01.960Z,10.78
2018-10-17T13:28:30.232Z,12.98
2018-10-17T13:30:58.461Z,11.20
2018-10-17T13:33:26.668Z,11.90
2018-10-17T13:35:55.395Z,13.15
2018-10-17T13:38:23.627Z,12.40
2018-10-17T13:40:51.709Z,12.40
2018-10-17T13:43:19.862Z,12.58
2018-10-17T13:45:48.846Z,11.40
2018-10-17T13:48:16.964Z,11.50
2018-10-17T13:50:44.996Z,11.70
2018-10-17T13:53:13.152Z,11.97
2018-10-17T13:55:41.785Z,14.63
2018-10-17T13:58:09.973Z,12.85
2018-10-17T14:00:38.346Z,12.33
2018-10-17T14:03:06.434Z,12.85
2018-10-17T14:05:34.490Z,13.72
2018-10-17T14:08:02.591Z,13.65
2018-10-17T14:10:30.621Z,13.70
2018-10-17T14:12:58.750Z,14.55
2018-10-17T14:15:27.408Z,13.18
2018-10-17T14:17:55.511Z,14.03
2018-10-17T14:20:23.490Z,13.58
2018-10-17T14:22:51.714Z,12.90
2018-10-17T14:25:25.690Z,13.95
2018-10-17T14:27:53.871Z,13.07
2018-10-17T14:30:21.939Z,13.48
2018-10-17T14:32:50.078Z,12.95
2018-10-17T14:35:18.513Z,14.40
2018-10-17T14:37:46.621Z,14.03
2018-10-17T14:40:14.732Z,12.93
2018-10-17T14:42:43.119Z,12.93
2018-10-17T14:45:11.411Z,13.88
2018-10-17T14:47:39.858Z,13.93
2018-10-17T14:50:08.613Z,13.78
2018-10-17T14:52:36.720Z,13.58
2018-10-17T14:55:05.142Z,13.22
2018-10-17T14:57:34.046Z,13.65
2018-10-17T15:00:02.085Z,14.65
2018-10-17T15:02:30.219Z,13.83
2018-10-17T15:04:58.479Z,14.78
2018-10-17T15:07:27.507Z,14.70
2018-10-17T15:09:55.628Z,15.28
2018-10-17T15:12:24.107Z,15.40
2018-10-17T15:14:52.252Z,15.15
2018-10-17T15:17:20.408Z,15.10
2018-10-17T15:19:48.497Z,15.48
2018-10-17T15:22:17.383Z,14.75
2018-10-17T15:24:45.720Z,15.72
2018-10-17T15:27:14.281Z,17.30
2018-10-17T15:29:43.137Z,14.78
2018-10-17T15:32:11.259Z,16.27
2018-10-17T15:34:40.158Z,15.93
2018-10-17T15:37:09.492Z,16.30
2018-10-17T15:39:37.458Z,15.53
2018-10-17T15:42:05.902Z,16.32
2018-10-17T15:44:33.947Z,20.63
2018-10-17T15:47:02.484Z,17.07
2018-10-17T15:49:30.598Z,18.10
2018-10-17T15:51:58.651Z,16.90
2018-10-17T15:54:26.796Z,16.85
2018-10-17T15:56:55.113Z,17.92
2018-10-17T15:59:23.135Z,16.75
2018-10-17T16:01:51.288Z,18.02
2018-10-17T16:04:19.695Z,17.47
2018-10-17T16:06:47.758Z,16.95
2018-10-17T16:09:17.479Z,18.02
2018-10-17T16:11:45.590Z,17.05
2018-10-17T16:14:13.639Z,18.73
2018-10-17T16:16:41.695Z,18.30
2018-10-17T16:19:09.746Z,18.00
2018-10-17T16:21:38.283Z,18.66
2018-10-17T16:24:06.374Z,18.43
2018-10-17T16:26:34.419Z,16.97
2018-10-17T16:29:02.484Z,18.80
2018-10-17T16:31:30.560Z,19.35
2018-10-17T16:33:58.632Z,19.87
2018-10-17T16:36:26.695Z,21.00
2018-10-17T16:38:55.007Z,24.10
2018-10-17T16:41:23.156Z,19.87
2018-10-17T16:43:51.149Z,16.40
2018-10-17T16:46:19.826Z,19.95
2018-10-17T16:48:48.062Z,18.32
2018-10-17T16:51:16.173Z,20.75
2018-10-17T16:53:44.486Z,21.50
2018-10-17T16:56:12.564Z,19.45
2018-10-17T16:58:40.909Z,22.98
2018-10-17T17:01:09.010Z,19.53
2018-10-17T17:03:37.124Z,20.30
2018-10-17T17:06:05.599Z,23.57
2018-10-17T17:08:33.687Z,22.45
2018-10-17T17:11:01.715Z,21.40
2018-10-17T17:13:29.785Z,22.07
2018-10-17T17:15:58.255Z,19.95
2018-10-17T17:18:26.416Z,20.15
2018-10-17T17:20:54.512Z,19.47
2018-10-17T17:23:22.635Z,21.35
2018-10-17T17:25:50.757Z,19.85
2018-10-17T17:28:18.791Z,26.70
2018-10-17T17:30:47.019Z,19.98
2018-10-17T17:33:15.141Z,20.02
2018-10-17T17:35:43.145Z,20.25
2018-10-17T17:38:11.252Z,19.50
2018-10-17T17:40:40.326Z,21.40
2018-10-17T17:43:08.544Z,23.27
2018-10-17T17:45:36.687Z,20.10
2018-10-17T17:48:04.855Z,22.70
2018-10-17T17:50:32.915Z,21.62
2018-10-17T17:53:01.004Z,23.00
2018-10-17T17:55:29.074Z,23.22
2018-10-17T17:57:57.150Z,22.70
2018-10-17T18:00:25.436Z,23.90
2018-10-17T18:02:53.475Z,24.37
2018-10-17T18:05:22.403Z,20.77
2018-10-17T18:07:50.509Z,22.87
2018-10-17T18:10:18.605Z,23.70
2018-10-17T18:12:46.734Z,21.82
2018-10-17T18:15:14.799Z,23.90
2018-10-17T18:17:42.828Z,23.30
2018-10-17T18:20:10.908Z,23.27
2018-10-17T18:22:38.971Z,24.63
2018-10-17T18:25:07.077Z,24.27
2018-10-17T18:27:35.685Z,23.65
2018-10-17T18:30:04.242Z,21.75
2018-10-17T18:32:32.411Z,21.50
2018-10-17T18:35:00.627Z,23.15
2018-10-17T18:37:29.015Z,22.77
2018-10-17T18:39:57.256Z,23.80
2018-10-17T18:42:26.303Z,23.57
2018-10-17T18:44:54.360Z,24.63
2018-10-17T18:47:22.411Z,25.10
2018-10-17T18:49:50.709Z,24.50
2018-10-17T18:52:18.763Z,23.57
2018-10-17T18:54:46.784Z,24.70
2018-10-17T18:57:14.934Z,23.87
2018-10-17T18:59:43.679Z,24.72
2018-10-17T19:02:11.761Z,23.85
2018-10-17T19:04:39.954Z,24.02
2018-10-17T19:07:08.135Z,23.98
2018-10-17T19:09:36.221Z,23.95
2018-10-17T19:12:04.585Z,25.92
2018-10-17T19:14:32.664Z,24.47
2018-10-17T19:17:00.754Z,25.07
2018-10-17T19:19:29.414Z,23.55
2018-10-17T19:21:57.451Z,23.77
2018-10-17T19:24:25.490Z,25.90
2018-10-17T19:26:53.643Z,23.90
2018-10-17T19:29:21.669Z,23.67
2018-10-17T19:31:49.789Z,25.48
2018-10-17T19:34:18.276Z,24.63
2018-10-17T19:36:47.119Z,26.02
2018-10-17T19:39:15.302Z,24.52
2018-10-17T19:41:43.583Z,25.85
2018-10-17T19:44:11.847Z,23.70
2018-10-17T19:46:39.978Z,23.62
2018-10-17T19:49:08.127Z,23.50
2018-10-17T19:51:36.162Z,25.10
2018-10-17T19:54:04.303Z,24.67
2018-10-17T19:56:32.526Z,24.20
2018-10-17T19:59:00.587Z,24.67
2018-10-17T20:01:28.647Z,26.15
2018-10-17T20:03:56.947Z,26.12
2018-10-17T20:06:25.013Z,24.55
2018-10-17T20:08:53.217Z,24.70
2018-10-17T20:11:21.302Z,24.52
2018-10-17T20:13:49.381Z,24.73
2018-10-17T20:16:17.427Z,24.32
2018-10-17T20:18:45.543Z,25.62
2018-10-17T20:21:13.696Z,25.57
2018-10-17T20:23:41.756Z,24.95
2018-10-17T20:26:10.539Z,26.05
2018-10-17T20:28:38.584Z,24.55
2018-10-17T20:31:07.355Z,25.44
2018-10-17T20:33:35.548Z,25.10
2018-10-17T20:36:03.581Z,26.37
2018-10-17T20:38:31.621Z,25.80
2018-10-17T20:41:00.210Z,27.30
2018-10-17T20:43:28.284Z,25.48
2018-10-17T20:45:56.504Z,27.67
2018-10-17T20:48:24.880Z,26.42
2018-10-17T20:50:52.901Z,26.62
2018-10-17T20:53:20.943Z,26.10
2018-10-17T20:55:49.099Z,24.95
2018-10-17T20:58:17.219Z,25.92
2018-10-17T21:00:45.166Z,26.93
2018-10-17T21:03:13.375Z,25.32
2018-10-17T21:05:41.485Z,25.65
2018-10-17T21:08:09.579Z,26.90
2018-10-17T21:10:37.706Z,27.00
2018-10-17T21:13:05.719Z,24.85
2018-10-17T21:15:33.739Z,24.80
2018-10-17T21:18:01.803Z,24.10
2018-10-17T21:20:29.823Z,26.50
2018-10-17T21:22:57.875Z,26.77
2018-10-17T21:25:26.296Z,26.27
2018-10-17T21:27:54.394Z,27.67
2018-10-17T21:30:22.448Z,26.53
2018-10-17T21:32:50.986Z,25.05
2018-10-17T21:35:19.019Z,27.10
2018-10-17T21:37:47.093Z,26.40
2018-10-17T21:40:15.382Z,26.95
2018-10-17T21:42:43.526Z,27.62
2018-10-17T21:45:11.687Z,26.20
2018-10-17T21:47:41.087Z,28.10
2018-10-17T21:50:09.243Z,27.82
2018-10-17T21:52:37.229Z,27.40
2018-10-17T21:55:05.477Z,28.20
2018-10-17T21:57:33.542Z,26.77
2018-10-17T22:00:01.586Z,26.20
2018-10-17T22:02:30.578Z,28.40
2018-10-17T22:04:58.602Z,27.20
2018-10-17T22:07:26.615Z,26.93
2018-10-17T22:09:54.745Z,26.62
2018-10-17T22:12:22.703Z,25.55
2018-10-17T22:14:50.744Z,27.75
2018-10-17T22:17:23.441Z,26.80
2018-10-17T22:19:52.236Z,27.82
2018-10-17T22:22:20.191Z,27.67
2018-10-17T22:24:48.439Z,27.55
2018-10-17T22:27:16.459Z,27.27
2018-10-17T22:29:44.523Z,26.93
2018-10-17T22:32:12.593Z,27.52
2018-10-17T22:34:40.762Z,26.50
2018-10-17T22:37:08.799Z,26.90
2018-10-17T22:39:37.147Z,28.98
2018-10-17T22:42:05.240Z,26.95
2018-10-17T22:44:33.632Z,26.76
2018-10-17T22:47:01.727Z,28.52
2018-10-17T22:49:30.014Z,27.05
2018-10-17T22:51:58.283Z,28.75
2018-10-17T22:54:26.424Z,27.58
2018-10-17T22:56:54.512Z,27.95
2018-10-17T22:59:22.584Z,28.42
2018-10-17T23:01:50.770Z,26.80
2018-10-17T23:04:18.819Z,28.40
2018-10-17T23:06:46.861Z,26.48
2018-10-17T23:09:15.634Z,26.30
2018-10-17T23:11:44.402Z,28.27
2018-10-17T23:14:12.508Z,28.20
2018-10-17T23:16:41.390Z,27.27
2018-10-17T23:19:10.352Z,28.55
2018-10-17T23:21:38.630Z,26.27
2018-10-17T23:24:07.127Z,25.43
2018-10-17T23:26:35.157Z,26.55
2018-10-17T23:29:03.244Z,28.77
2018-10-17T23:31:31.356Z,27.73
2018-10-17T23:33:59.490Z,29.10
2018-10-17T23:36:27.593Z,27.55
2018-10-17T23:38:55.825Z,27.05
2018-10-17T23:41:23.894Z,29.18
2018-10-17T23:43:51.925Z,28.73
2018-10-17T23:46:20.015Z,27.60
2018-10-17T23:48:48.231Z,27.62
2018-10-17T23:51:16.537Z,29.18
2018-10-17T23:53:44.783Z,29.02
2018-10-17T23:56:12.856Z,27.52
2018-10-17T23:58:40.909Z,29.45
